sensor_id;sensor_type;location;lat;lon;timestamp;P1;durP1;ratioP1;P2;durP2;ratioP2
68944;SDS011;55984;48.790;8.990;2023-07-30T00:00:29;9.30;;;5.20;;
68944;SDS011;55984;48.790;8.990;2023-07-30T00:02:55;11.07;;;5.63;;
68944;SDS011;55984;48.790;8.990;2023-07-30T00:05:21;9.50;;;5.87;;
68944;SDS011;55984;48.790;8.990;2023-07-30T00:07:47;11.50;;;6.37;;
68944;SDS011;55984;48.790;8.990;2023-07-30T00:10:13;13.20;;;6.73;;
68944;SDS011;55984;48.790;8.990;2023-07-30T00:12:39;12.63;;;6.20;;
68944;SDS011;55984;48.790;8.990;2023-07-30T00:15:06;14.90;;;6.80;;
68944;SDS011;55984;48.790;8.990;2023-07-30T00:17:32;14.70;;;7.00;;
68944;SDS011;55984;48.790;8.990;2023-07-30T00:19:59;14.17;;;6.80;;
68944;SDS011;55984;48.790;8.990;2023-07-30T00:22:24;13.47;;;6.50;;
68944;SDS011;55984;48.790;8.990;2023-07-30T00:24:50;16.60;;;6.70;;
68944;SDS011;55984;48.790;8.990;2023-07-30T00:27:16;13.20;;;6.40;;
68944;SDS011;55984;48.790;8.990;2023-07-30T00:29:42;12.10;;;5.90;;
68944;SDS011;55984;48.790;8.990;2023-07-30T00:32:08;10.87;;;6.13;;
68944;SDS011;55984;48.790;8.990;2023-07-30T00:34:34;15.47;;;6.40;;
68944;SDS011;55984;48.790;8.990;2023-07-30T00:37:00;13.83;;;6.70;;
68944;SDS011;55984;48.790;8.990;2023-07-30T00:39:26;14.50;;;7.30;;
68944;SDS011;55984;48.790;8.990;2023-07-30T00:41:52;17.27;;;6.20;;
68944;SDS011;55984;48.790;8.990;2023-07-30T00:44:18;13.47;;;6.33;;
68944;SDS011;55984;48.790;8.990;2023-07-30T00:46:44;14.60;;;7.20;;
68944;SDS011;55984;48.790;8.990;2023-07-30T00:49:10;13.10;;;7.07;;
68944;SDS011;55984;48.790;8.990;2023-07-30T00:51:37;14.07;;;7.50;;
68944;SDS011;55984;48.790;8.990;2023-07-30T00:54:03;20.87;;;8.30;;
68944;SDS011;55984;48.790;8.990;2023-07-30T00:56:30;17.73;;;8.43;;
68944;SDS011;55984;48.790;8.990;2023-07-30T00:58:56;13.00;;;7.90;;
68944;SDS011;55984;48.790;8.990;2023-07-30T01:01:22;13.93;;;7.83;;
68944;SDS011;55984;48.790;8.990;2023-07-30T01:03:48;14.00;;;8.00;;
68944;SDS011;55984;48.790;8.990;2023-07-30T01:06:15;16.53;;;8.37;;
68944;SDS011;55984;48.790;8.990;2023-07-30T01:08:40;14.73;;;7.83;;
68944;SDS011;55984;48.790;8.990;2023-07-30T01:11:07;16.87;;;8.27;;
68944;SDS011;55984;48.790;8.990;2023-07-30T01:13:34;18.33;;;8.10;;
68944;SDS011;55984;48.790;8.990;2023-07-30T01:16:01;14.27;;;7.73;;
68944;SDS011;55984;48.790;8.990;2023-07-30T01:18:28;16.00;;;7.57;;
68944;SDS011;55984;48.790;8.990;2023-07-30T01:20:58;17.70;;;8.50;;
68944;SDS011;55984;48.790;8.990;2023-07-30T01:23:24;14.53;;;7.50;;
68944;SDS011;55984;48.790;8.990;2023-07-30T01:26:10;16.70;;;8.40;;
68944;SDS011;55984;48.790;8.990;2023-07-30T01:28:51;16.90;;;8.90;;
68944;SDS011;55984;48.790;8.990;2023-07-30T01:31:20;19.53;;;8.63;;
68944;SDS011;55984;48.790;8.990;2023-07-30T01:33:51;14.70;;;7.40;;
68944;SDS011;55984;48.790;8.990;2023-07-30T01:36:19;11.67;;;7.30;;
68944;SDS011;55984;48.790;8.990;2023-07-30T01:38:46;12.47;;;6.87;;
68944;SDS011;55984;48.790;8.990;2023-07-30T01:41:14;10.70;;;6.53;;
68944;SDS011;55984;48.790;8.990;2023-07-30T01:43:39;15.83;;;6.57;;
68944;SDS011;55984;48.790;8.990;2023-07-30T01:46:05;10.27;;;6.13;;
68944;SDS011;55984;48.790;8.990;2023-07-30T01:48:31;11.63;;;6.00;;
68944;SDS011;55984;48.790;8.990;2023-07-30T01:50:57;11.63;;;6.23;;
68944;SDS011;55984;48.790;8.990;2023-07-30T01:53:23;9.93;;;6.07;;
68944;SDS011;55984;48.790;8.990;2023-07-30T01:55:49;14.77;;;6.73;;
68944;SDS011;55984;48.790;8.990;2023-07-30T01:58:17;12.23;;;6.77;;
68944;SDS011;55984;48.790;8.990;2023-07-30T02:00:43;13.47;;;6.90;;
68944;SDS011;55984;48.790;8.990;2023-07-30T02:03:11;10.27;;;6.10;;
68944;SDS011;55984;48.790;8.990;2023-07-30T02:05:37;11.40;;;5.90;;
68944;SDS011;55984;48.790;8.990;2023-07-30T02:08:03;24.83;;;6.93;;
68944;SDS011;55984;48.790;8.990;2023-07-30T02:10:29;11.80;;;6.70;;
68944;SDS011;55984;48.790;8.990;2023-07-30T02:12:55;9.90;;;5.73;;
68944;SDS011;55984;48.790;8.990;2023-07-30T02:15:21;10.23;;;6.37;;
68944;SDS011;55984;48.790;8.990;2023-07-30T02:17:47;10.80;;;5.97;;
68944;SDS011;55984;48.790;8.990;2023-07-30T02:20:13;12.00;;;6.30;;
68944;SDS011;55984;48.790;8.990;2023-07-30T02:22:38;12.47;;;6.33;;
68944;SDS011;55984;48.790;8.990;2023-07-30T02:25:04;8.87;;;5.80;;
68944;SDS011;55984;48.790;8.990;2023-07-30T02:27:31;12.77;;;7.50;;
68944;SDS011;55984;48.790;8.990;2023-07-30T02:29:57;13.67;;;8.03;;
68944;SDS011;55984;48.790;8.990;2023-07-30T02:32:22;14.00;;;7.30;;
68944;SDS011;55984;48.790;8.990;2023-07-30T02:34:49;13.80;;;6.90;;
68944;SDS011;55984;48.790;8.990;2023-07-30T02:37:15;19.73;;;8.07;;
68944;SDS011;55984;48.790;8.990;2023-07-30T02:39:42;19.00;;;8.47;;
68944;SDS011;55984;48.790;8.990;2023-07-30T02:42:07;17.30;;;9.07;;
68944;SDS011;55984;48.790;8.990;2023-07-30T02:44:33;14.60;;;8.90;;
68944;SDS011;55984;48.790;8.990;2023-07-30T02:46:59;15.60;;;8.90;;
68944;SDS011;55984;48.790;8.990;2023-07-30T02:49:25;19.73;;;9.30;;
68944;SDS011;55984;48.790;8.990;2023-07-30T02:51:51;25.60;;;9.77;;
68944;SDS011;55984;48.790;8.990;2023-07-30T02:54:19;17.77;;;9.90;;
68944;SDS011;55984;48.790;8.990;2023-07-30T02:56:48;19.30;;;9.43;;
68944;SDS011;55984;48.790;8.990;2023-07-30T02:59:14;15.93;;;9.17;;
68944;SDS011;55984;48.790;8.990;2023-07-30T03:01:40;18.10;;;9.40;;
68944;SDS011;55984;48.790;8.990;2023-07-30T03:04:05;15.17;;;8.73;;
68944;SDS011;55984;48.790;8.990;2023-07-30T03:06:31;17.37;;;9.43;;
68944;SDS011;55984;48.790;8.990;2023-07-30T03:08:57;16.40;;;9.23;;
68944;SDS011;55984;48.790;8.990;2023-07-30T03:11:23;22.50;;;9.30;;
68944;SDS011;55984;48.790;8.990;2023-07-30T03:13:49;17.63;;;9.20;;
68944;SDS011;55984;48.790;8.990;2023-07-30T03:16:15;21.40;;;9.10;;
68944;SDS011;55984;48.790;8.990;2023-07-30T03:18:41;18.73;;;8.70;;
68944;SDS011;55984;48.790;8.990;2023-07-30T03:21:07;17.90;;;9.27;;
68944;SDS011;55984;48.790;8.990;2023-07-30T03:23:32;14.60;;;8.37;;
68944;SDS011;55984;48.790;8.990;2023-07-30T03:25:59;19.67;;;8.63;;
68944;SDS011;55984;48.790;8.990;2023-07-30T03:28:25;18.47;;;8.00;;
68944;SDS011;55984;48.790;8.990;2023-07-30T03:30:51;17.33;;;8.60;;
68944;SDS011;55984;48.790;8.990;2023-07-30T03:33:17;15.83;;;7.80;;
68944;SDS011;55984;48.790;8.990;2023-07-30T03:35:43;13.23;;;8.10;;
68944;SDS011;55984;48.790;8.990;2023-07-30T03:38:10;16.00;;;8.90;;
68944;SDS011;55984;48.790;8.990;2023-07-30T03:40:36;17.33;;;8.90;;
68944;SDS011;55984;48.790;8.990;2023-07-30T03:43:02;13.30;;;7.83;;
68944;SDS011;55984;48.790;8.990;2023-07-30T03:45:28;14.80;;;8.37;;
68944;SDS011;55984;48.790;8.990;2023-07-30T03:47:53;15.33;;;8.40;;
68944;SDS011;55984;48.790;8.990;2023-07-30T03:50:19;14.00;;;8.00;;
68944;SDS011;55984;48.790;8.990;2023-07-30T03:52:45;18.90;;;8.70;;
68944;SDS011;55984;48.790;8.990;2023-07-30T03:55:12;12.20;;;7.60;;
68944;SDS011;55984;48.790;8.990;2023-07-30T03:57:38;19.03;;;7.93;;
68944;SDS011;55984;48.790;8.990;2023-07-30T04:00:04;17.33;;;8.70;;
68944;SDS011;55984;48.790;8.990;2023-07-30T04:02:30;16.97;;;8.73;;
68944;SDS011;55984;48.790;8.990;2023-07-30T04:04:56;17.30;;;8.40;;
68944;SDS011;55984;48.790;8.990;2023-07-30T04:07:22;16.97;;;8.27;;
68944;SDS011;55984;48.790;8.990;2023-07-30T04:09:48;13.90;;;7.40;;
68944;SDS011;55984;48.790;8.990;2023-07-30T04:12:14;21.97;;;8.70;;
68944;SDS011;55984;48.790;8.990;2023-07-30T04:14:40;13.63;;;7.80;;
68944;SDS011;55984;48.790;8.990;2023-07-30T04:17:07;15.07;;;7.93;;
68944;SDS011;55984;48.790;8.990;2023-07-30T04:19:32;13.73;;;6.87;;
68944;SDS011;55984;48.790;8.990;2023-07-30T04:21:58;14.40;;;7.77;;
68944;SDS011;55984;48.790;8.990;2023-07-30T04:24:24;14.60;;;7.73;;
68944;SDS011;55984;48.790;8.990;2023-07-30T04:26:51;15.40;;;6.97;;
68944;SDS011;55984;48.790;8.990;2023-07-30T04:29:17;14.83;;;6.93;;
68944;SDS011;55984;48.790;8.990;2023-07-30T04:31:43;13.00;;;6.83;;
68944;SDS011;55984;48.790;8.990;2023-07-30T04:34:09;11.67;;;6.97;;
68944;SDS011;55984;48.790;8.990;2023-07-30T04:36:34;13.20;;;7.37;;
68944;SDS011;55984;48.790;8.990;2023-07-30T04:39:01;15.33;;;8.60;;
68944;SDS011;55984;48.790;8.990;2023-07-30T04:41:27;12.30;;;6.97;;
68944;SDS011;55984;48.790;8.990;2023-07-30T04:43:53;23.53;;;12.30;;
68944;SDS011;55984;48.790;8.990;2023-07-30T04:46:20;14.70;;;8.13;;
68944;SDS011;55984;48.790;8.990;2023-07-30T04:48:46;22.47;;;8.87;;
68944;SDS011;55984;48.790;8.990;2023-07-30T04:51:12;13.23;;;6.30;;
68944;SDS011;55984;48.790;8.990;2023-07-30T04:53:38;11.13;;;6.97;;
68944;SDS011;55984;48.790;8.990;2023-07-30T04:58:35;11.90;;;6.80;;
68944;SDS011;55984;48.790;8.990;2023-07-30T05:01:00;13.03;;;6.63;;
68944;SDS011;55984;48.790;8.990;2023-07-30T05:03:29;10.80;;;6.37;;
68944;SDS011;55984;48.790;8.990;2023-07-30T05:05:54;11.30;;;6.47;;
68944;SDS011;55984;48.790;8.990;2023-07-30T05:08:20;15.43;;;8.77;;
68944;SDS011;55984;48.790;8.990;2023-07-30T05:10:46;13.43;;;7.60;;
68944;SDS011;55984;48.790;8.990;2023-07-30T05:13:12;12.00;;;7.70;;
68944;SDS011;55984;48.790;8.990;2023-07-30T05:15:38;11.03;;;6.73;;
68944;SDS011;55984;48.790;8.990;2023-07-30T05:18:04;11.03;;;6.80;;
68944;SDS011;55984;48.790;8.990;2023-07-30T05:20:30;13.73;;;7.13;;
68944;SDS011;55984;48.790;8.990;2023-07-30T05:22:56;15.40;;;7.30;;
68944;SDS011;55984;48.790;8.990;2023-07-30T05:25:21;9.30;;;5.37;;
68944;SDS011;55984;48.790;8.990;2023-07-30T05:27:48;10.93;;;6.00;;
68944;SDS011;55984;48.790;8.990;2023-07-30T05:30:13;11.60;;;6.77;;
68944;SDS011;55984;48.790;8.990;2023-07-30T05:32:39;11.20;;;6.30;;
68944;SDS011;55984;48.790;8.990;2023-07-30T05:35:05;16.63;;;6.33;;
68944;SDS011;55984;48.790;8.990;2023-07-30T05:37:32;9.23;;;5.00;;
68944;SDS011;55984;48.790;8.990;2023-07-30T05:40:00;7.60;;;5.40;;
68944;SDS011;55984;48.790;8.990;2023-07-30T05:42:26;6.90;;;4.63;;
68944;SDS011;55984;48.790;8.990;2023-07-30T05:44:54;10.67;;;5.03;;
68944;SDS011;55984;48.790;8.990;2023-07-30T05:47:20;6.60;;;4.57;;
68944;SDS011;55984;48.790;8.990;2023-07-30T05:49:46;6.90;;;4.77;;
68944;SDS011;55984;48.790;8.990;2023-07-30T05:52:12;7.70;;;5.03;;
68944;SDS011;55984;48.790;8.990;2023-07-30T05:54:38;6.63;;;4.40;;
68944;SDS011;55984;48.790;8.990;2023-07-30T05:57:04;6.40;;;4.50;;
68944;SDS011;55984;48.790;8.990;2023-07-30T05:59:30;7.63;;;4.70;;
68944;SDS011;55984;48.790;8.990;2023-07-30T06:01:56;7.00;;;4.50;;
68944;SDS011;55984;48.790;8.990;2023-07-30T06:04:24;6.53;;;4.77;;
68944;SDS011;55984;48.790;8.990;2023-07-30T06:06:50;6.33;;;4.27;;
68944;SDS011;55984;48.790;8.990;2023-07-30T06:09:18;6.63;;;3.90;;
68944;SDS011;55984;48.790;8.990;2023-07-30T06:11:47;6.03;;;4.87;;
68944;SDS011;55984;48.790;8.990;2023-07-30T06:14:12;7.30;;;5.37;;
68944;SDS011;55984;48.790;8.990;2023-07-30T06:16:38;9.23;;;6.00;;
68944;SDS011;55984;48.790;8.990;2023-07-30T06:19:04;5.40;;;3.50;;
68944;SDS011;55984;48.790;8.990;2023-07-30T06:21:30;5.40;;;3.40;;
68944;SDS011;55984;48.790;8.990;2023-07-30T06:23:56;7.03;;;3.80;;
68944;SDS011;55984;48.790;8.990;2023-07-30T06:26:22;9.20;;;3.97;;
68944;SDS011;55984;48.790;8.990;2023-07-30T06:28:48;5.13;;;3.77;;
68944;SDS011;55984;48.790;8.990;2023-07-30T06:31:13;11.10;;;4.00;;
68944;SDS011;55984;48.790;8.990;2023-07-30T06:33:39;7.43;;;3.60;;
68944;SDS011;55984;48.790;8.990;2023-07-30T06:36:05;7.17;;;3.40;;
68944;SDS011;55984;48.790;8.990;2023-07-30T06:38:32;4.73;;;3.07;;
68944;SDS011;55984;48.790;8.990;2023-07-30T06:40:57;4.57;;;3.20;;
68944;SDS011;55984;48.790;8.990;2023-07-30T06:43:23;3.20;;;2.40;;
68944;SDS011;55984;48.790;8.990;2023-07-30T06:45:53;4.00;;;2.90;;
68944;SDS011;55984;48.790;8.990;2023-07-30T06:48:20;3.80;;;3.00;;
68944;SDS011;55984;48.790;8.990;2023-07-30T06:50:46;4.30;;;3.13;;
68944;SDS011;55984;48.790;8.990;2023-07-30T06:53:12;4.50;;;3.30;;
68944;SDS011;55984;48.790;8.990;2023-07-30T06:55:37;3.97;;;2.93;;
68944;SDS011;55984;48.790;8.990;2023-07-30T06:58:03;5.13;;;3.40;;
68944;SDS011;55984;48.790;8.990;2023-07-30T07:00:29;4.87;;;3.07;;
68944;SDS011;55984;48.790;8.990;2023-07-30T07:02:55;8.50;;;3.20;;
68944;SDS011;55984;48.790;8.990;2023-07-30T07:05:21;6.53;;;3.30;;
68944;SDS011;55984;48.790;8.990;2023-07-30T07:07:47;5.43;;;3.10;;
68944;SDS011;55984;48.790;8.990;2023-07-30T07:10:16;4.80;;;2.90;;
68944;SDS011;55984;48.790;8.990;2023-07-30T07:12:42;6.40;;;2.80;;
68944;SDS011;55984;48.790;8.990;2023-07-30T07:15:08;8.20;;;3.00;;
68944;SDS011;55984;48.790;8.990;2023-07-30T07:17:34;8.43;;;3.30;;
68944;SDS011;55984;48.790;8.990;2023-07-30T07:20:00;5.40;;;3.13;;
68944;SDS011;55984;48.790;8.990;2023-07-30T07:22:27;8.67;;;3.33;;
68944;SDS011;55984;48.790;8.990;2023-07-30T07:24:53;7.20;;;3.57;;
68944;SDS011;55984;48.790;8.990;2023-07-30T07:27:18;4.33;;;2.90;;
68944;SDS011;55984;48.790;8.990;2023-07-30T07:29:44;5.00;;;3.30;;
68944;SDS011;55984;48.790;8.990;2023-07-30T07:32:10;3.80;;;2.87;;
68944;SDS011;55984;48.790;8.990;2023-07-30T07:34:36;4.10;;;3.20;;
68944;SDS011;55984;48.790;8.990;2023-07-30T07:37:03;4.20;;;3.00;;
68944;SDS011;55984;48.790;8.990;2023-07-30T07:39:28;4.30;;;2.97;;
68944;SDS011;55984;48.790;8.990;2023-07-30T07:41:55;4.70;;;2.80;;
68944;SDS011;55984;48.790;8.990;2023-07-30T07:44:21;4.63;;;3.00;;
68944;SDS011;55984;48.790;8.990;2023-07-30T07:46:47;4.13;;;2.80;;
68944;SDS011;55984;48.790;8.990;2023-07-30T07:49:13;4.17;;;2.70;;
68944;SDS011;55984;48.790;8.990;2023-07-30T07:51:39;3.90;;;2.80;;
68944;SDS011;55984;48.790;8.990;2023-07-30T07:54:05;3.50;;;2.53;;
68944;SDS011;55984;48.790;8.990;2023-07-30T07:56:31;3.03;;;2.47;;
68944;SDS011;55984;48.790;8.990;2023-07-30T07:58:57;3.43;;;2.60;;
68944;SDS011;55984;48.790;8.990;2023-07-30T08:01:23;2.80;;;2.30;;
68944;SDS011;55984;48.790;8.990;2023-07-30T08:03:49;5.73;;;2.50;;
68944;SDS011;55984;48.790;8.990;2023-07-30T08:06:16;6.47;;;2.50;;
68944;SDS011;55984;48.790;8.990;2023-07-30T08:08:42;5.10;;;2.50;;
68944;SDS011;55984;48.790;8.990;2023-07-30T08:11:08;3.23;;;2.47;;
68944;SDS011;55984;48.790;8.990;2023-07-30T08:13:34;6.27;;;2.40;;
68944;SDS011;55984;48.790;8.990;2023-07-30T08:16:01;4.30;;;2.60;;
68944;SDS011;55984;48.790;8.990;2023-07-30T08:18:27;4.07;;;2.40;;
68944;SDS011;55984;48.790;8.990;2023-07-30T08:20:53;2.73;;;2.30;;
68944;SDS011;55984;48.790;8.990;2023-07-30T08:23:19;4.37;;;2.60;;
68944;SDS011;55984;48.790;8.990;2023-07-30T08:25:45;3.23;;;2.20;;
68944;SDS011;55984;48.790;8.990;2023-07-30T08:28:11;3.47;;;2.10;;
68944;SDS011;55984;48.790;8.990;2023-07-30T08:30:37;3.90;;;2.53;;
68944;SDS011;55984;48.790;8.990;2023-07-30T08:33:03;8.50;;;2.30;;
68944;SDS011;55984;48.790;8.990;2023-07-30T08:35:29;4.20;;;2.17;;
68944;SDS011;55984;48.790;8.990;2023-07-30T08:37:55;8.00;;;2.50;;
68944;SDS011;55984;48.790;8.990;2023-07-30T08:40:21;5.70;;;2.30;;
68944;SDS011;55984;48.790;8.990;2023-07-30T08:42:51;4.10;;;2.47;;
68944;SDS011;55984;48.790;8.990;2023-07-30T08:45:17;7.93;;;2.20;;
68944;SDS011;55984;48.790;8.990;2023-07-30T08:47:44;3.23;;;2.50;;
68944;SDS011;55984;48.790;8.990;2023-07-30T08:50:10;3.80;;;2.53;;
68944;SDS011;55984;48.790;8.990;2023-07-30T08:52:36;11.97;;;2.47;;
68944;SDS011;55984;48.790;8.990;2023-07-30T08:55:03;2.80;;;2.43;;
68944;SDS011;55984;48.790;8.990;2023-07-30T08:57:30;3.60;;;2.50;;
68944;SDS011;55984;48.790;8.990;2023-07-30T09:02:34;5.00;;;2.70;;
68944;SDS011;55984;48.790;8.990;2023-07-30T09:05:03;4.30;;;2.60;;
68944;SDS011;55984;48.790;8.990;2023-07-30T09:07:30;4.77;;;2.77;;
68944;SDS011;55984;48.790;8.990;2023-07-30T09:09:56;6.30;;;2.80;;
68944;SDS011;55984;48.790;8.990;2023-07-30T09:12:26;3.67;;;2.70;;
68944;SDS011;55984;48.790;8.990;2023-07-30T09:14:54;4.30;;;3.00;;
68944;SDS011;55984;48.790;8.990;2023-07-30T09:17:20;3.63;;;2.77;;
68944;SDS011;55984;48.790;8.990;2023-07-30T09:19:46;4.90;;;2.50;;
68944;SDS011;55984;48.790;8.990;2023-07-30T09:22:12;5.70;;;3.50;;
68944;SDS011;55984;48.790;8.990;2023-07-30T09:24:45;3.97;;;2.70;;
68944;SDS011;55984;48.790;8.990;2023-07-30T09:27:11;3.83;;;2.80;;
68944;SDS011;55984;48.790;8.990;2023-07-30T09:29:37;8.27;;;2.77;;
68944;SDS011;55984;48.790;8.990;2023-07-30T09:32:03;4.03;;;2.70;;
68944;SDS011;55984;48.790;8.990;2023-07-30T09:34:29;3.77;;;2.70;;
68944;SDS011;55984;48.790;8.990;2023-07-30T09:36:55;4.77;;;3.17;;
68944;SDS011;55984;48.790;8.990;2023-07-30T09:39:23;4.27;;;2.70;;
68944;SDS011;55984;48.790;8.990;2023-07-30T09:41:51;3.40;;;2.80;;
68944;SDS011;55984;48.790;8.990;2023-07-30T09:44:19;8.13;;;2.63;;
68944;SDS011;55984;48.790;8.990;2023-07-30T09:46:46;5.07;;;2.77;;
68944;SDS011;55984;48.790;8.990;2023-07-30T09:49:14;4.53;;;2.57;;
68944;SDS011;55984;48.790;8.990;2023-07-30T09:51:41;4.00;;;2.93;;
68944;SDS011;55984;48.790;8.990;2023-07-30T09:54:08;7.03;;;2.87;;
68944;SDS011;55984;48.790;8.990;2023-07-30T09:56:38;4.00;;;2.73;;
68944;SDS011;55984;48.790;8.990;2023-07-30T09:59:05;4.67;;;2.73;;
68944;SDS011;55984;48.790;8.990;2023-07-30T10:01:53;9.10;;;2.77;;
68944;SDS011;55984;48.790;8.990;2023-07-30T10:04:20;3.50;;;2.60;;
68944;SDS011;55984;48.790;8.990;2023-07-30T10:06:58;4.70;;;2.70;;
68944;SDS011;55984;48.790;8.990;2023-07-30T10:09:29;5.07;;;2.70;;
68944;SDS011;55984;48.790;8.990;2023-07-30T10:11:59;3.93;;;3.00;;
68944;SDS011;55984;48.790;8.990;2023-07-30T10:14:29;5.10;;;3.00;;
68944;SDS011;55984;48.790;8.990;2023-07-30T10:16:57;4.40;;;2.70;;
68944;SDS011;55984;48.790;8.990;2023-07-30T10:19:26;4.60;;;3.00;;
68944;SDS011;55984;48.790;8.990;2023-07-30T10:24:37;5.87;;;2.60;;
68944;SDS011;55984;48.790;8.990;2023-07-30T10:27:05;5.20;;;2.83;;
68944;SDS011;55984;48.790;8.990;2023-07-30T10:29:31;7.57;;;3.00;;
68944;SDS011;55984;48.790;8.990;2023-07-30T10:32:05;4.67;;;2.80;;
68944;SDS011;55984;48.790;8.990;2023-07-30T10:34:44;3.00;;;2.73;;
68944;SDS011;55984;48.790;8.990;2023-07-30T10:37:22;5.33;;;3.23;;
68944;SDS011;55984;48.790;8.990;2023-07-30T10:39:50;5.40;;;3.23;;
68944;SDS011;55984;48.790;8.990;2023-07-30T10:42:16;3.40;;;2.43;;
68944;SDS011;55984;48.790;8.990;2023-07-30T10:44:43;6.40;;;2.90;;
68944;SDS011;55984;48.790;8.990;2023-07-30T10:47:10;4.27;;;2.93;;
68944;SDS011;55984;48.790;8.990;2023-07-30T10:49:36;4.30;;;2.77;;
68944;SDS011;55984;48.790;8.990;2023-07-30T10:52:03;4.30;;;2.80;;
68944;SDS011;55984;48.790;8.990;2023-07-30T10:54:33;3.50;;;2.67;;
68944;SDS011;55984;48.790;8.990;2023-07-30T10:57:00;5.33;;;2.70;;
68944;SDS011;55984;48.790;8.990;2023-07-30T10:59:32;4.63;;;2.90;;
68944;SDS011;55984;48.790;8.990;2023-07-30T11:02:01;7.07;;;3.30;;
68944;SDS011;55984;48.790;8.990;2023-07-30T11:04:27;5.57;;;2.93;;
68944;SDS011;55984;48.790;8.990;2023-07-30T11:06:53;5.63;;;3.10;;
68944;SDS011;55984;48.790;8.990;2023-07-30T11:09:19;4.87;;;2.90;;
68944;SDS011;55984;48.790;8.990;2023-07-30T11:11:48;6.07;;;3.17;;
68944;SDS011;55984;48.790;8.990;2023-07-30T11:14:19;4.20;;;2.80;;
68944;SDS011;55984;48.790;8.990;2023-07-30T11:16:52;4.07;;;3.10;;
68944;SDS011;55984;48.790;8.990;2023-07-30T11:19:23;5.10;;;3.40;;
68944;SDS011;55984;48.790;8.990;2023-07-30T11:21:50;5.97;;;3.50;;
68944;SDS011;55984;48.790;8.990;2023-07-30T11:24:17;4.00;;;2.80;;
68944;SDS011;55984;48.790;8.990;2023-07-30T11:26:43;5.13;;;3.20;;
68944;SDS011;55984;48.790;8.990;2023-07-30T11:29:15;4.73;;;3.23;;
68944;SDS011;55984;48.790;8.990;2023-07-30T11:31:43;3.60;;;3.00;;
68944;SDS011;55984;48.790;8.990;2023-07-30T11:34:09;3.83;;;2.93;;
68944;SDS011;55984;48.790;8.990;2023-07-30T11:36:36;4.87;;;2.77;;
68944;SDS011;55984;48.790;8.990;2023-07-30T11:39:02;6.43;;;2.87;;
68944;SDS011;55984;48.790;8.990;2023-07-30T11:41:31;3.50;;;3.00;;
68944;SDS011;55984;48.790;8.990;2023-07-30T11:43:58;4.30;;;2.90;;
68944;SDS011;55984;48.790;8.990;2023-07-30T11:46:24;4.83;;;2.77;;
68944;SDS011;55984;48.790;8.990;2023-07-30T11:48:51;4.37;;;2.90;;
68944;SDS011;55984;48.790;8.990;2023-07-30T11:53:44;5.93;;;3.20;;
68944;SDS011;55984;48.790;8.990;2023-07-30T11:56:21;5.57;;;2.90;;
68944;SDS011;55984;48.790;8.990;2023-07-30T11:58:48;5.73;;;2.90;;
68944;SDS011;55984;48.790;8.990;2023-07-30T12:01:16;5.60;;;2.87;;
68944;SDS011;55984;48.790;8.990;2023-07-30T12:03:42;5.43;;;2.73;;
68944;SDS011;55984;48.790;8.990;2023-07-30T12:06:09;3.33;;;2.73;;
68944;SDS011;55984;48.790;8.990;2023-07-30T12:08:36;5.07;;;3.13;;
68944;SDS011;55984;48.790;8.990;2023-07-30T12:11:03;4.60;;;2.90;;
68944;SDS011;55984;48.790;8.990;2023-07-30T12:13:30;4.57;;;3.60;;
68944;SDS011;55984;48.790;8.990;2023-07-30T12:15:56;4.37;;;3.00;;
68944;SDS011;55984;48.790;8.990;2023-07-30T12:18:22;4.50;;;2.73;;
68944;SDS011;55984;48.790;8.990;2023-07-30T12:20:50;8.00;;;5.23;;
68944;SDS011;55984;48.790;8.990;2023-07-30T12:23:17;10.53;;;6.97;;
68944;SDS011;55984;48.790;8.990;2023-07-30T12:25:43;9.40;;;5.83;;
68944;SDS011;55984;48.790;8.990;2023-07-30T12:28:09;5.83;;;3.17;;
68944;SDS011;55984;48.790;8.990;2023-07-30T12:30:35;6.70;;;2.97;;
68944;SDS011;55984;48.790;8.990;2023-07-30T12:33:02;4.50;;;2.87;;
68944;SDS011;55984;48.790;8.990;2023-07-30T12:35:29;4.57;;;3.10;;
68944;SDS011;55984;48.790;8.990;2023-07-30T12:37:55;4.40;;;2.70;;
68944;SDS011;55984;48.790;8.990;2023-07-30T12:40:21;4.17;;;3.20;;
68944;SDS011;55984;48.790;8.990;2023-07-30T12:42:47;4.17;;;3.20;;
68944;SDS011;55984;48.790;8.990;2023-07-30T12:45:21;4.67;;;2.77;;
68944;SDS011;55984;48.790;8.990;2023-07-30T12:47:47;5.40;;;2.60;;
68944;SDS011;55984;48.790;8.990;2023-07-30T12:50:13;6.53;;;3.20;;
68944;SDS011;55984;48.790;8.990;2023-07-30T12:52:39;22.07;;;13.83;;
68944;SDS011;55984;48.790;8.990;2023-07-30T12:55:05;4.70;;;3.00;;
68944;SDS011;55984;48.790;8.990;2023-07-30T12:57:31;32.47;;;30.93;;
68944;SDS011;55984;48.790;8.990;2023-07-30T12:59:57;6.43;;;2.90;;
68944;SDS011;55984;48.790;8.990;2023-07-30T13:02:23;30.80;;;20.60;;
68944;SDS011;55984;48.790;8.990;2023-07-30T13:04:49;4.90;;;3.03;;
68944;SDS011;55984;48.790;8.990;2023-07-30T13:07:15;4.27;;;2.70;;
68944;SDS011;55984;48.790;8.990;2023-07-30T13:09:41;3.87;;;3.03;;
68944;SDS011;55984;48.790;8.990;2023-07-30T13:12:07;5.83;;;2.70;;
68944;SDS011;55984;48.790;8.990;2023-07-30T13:14:33;3.80;;;2.53;;
68944;SDS011;55984;48.790;8.990;2023-07-30T13:16:58;3.30;;;2.60;;
68944;SDS011;55984;48.790;8.990;2023-07-30T13:19:24;5.13;;;2.83;;
68944;SDS011;55984;48.790;8.990;2023-07-30T13:21:50;6.40;;;3.17;;
68944;SDS011;55984;48.790;8.990;2023-07-30T13:24:16;6.50;;;3.07;;
68944;SDS011;55984;48.790;8.990;2023-07-30T13:26:42;5.20;;;2.40;;
68944;SDS011;55984;48.790;8.990;2023-07-30T13:29:09;3.73;;;2.20;;
68944;SDS011;55984;48.790;8.990;2023-07-30T13:31:35;4.40;;;2.73;;
68944;SDS011;55984;48.790;8.990;2023-07-30T13:34:01;7.30;;;2.67;;
68944;SDS011;55984;48.790;8.990;2023-07-30T13:36:26;5.13;;;2.73;;
68944;SDS011;55984;48.790;8.990;2023-07-30T13:38:52;4.97;;;2.70;;
68944;SDS011;55984;48.790;8.990;2023-07-30T13:41:18;4.20;;;2.70;;
68944;SDS011;55984;48.790;8.990;2023-07-30T13:43:44;6.40;;;2.50;;
68944;SDS011;55984;48.790;8.990;2023-07-30T13:46:10;5.40;;;2.57;;
68944;SDS011;55984;48.790;8.990;2023-07-30T13:48:36;4.53;;;2.50;;
68944;SDS011;55984;48.790;8.990;2023-07-30T13:51:02;3.97;;;2.63;;
68944;SDS011;55984;48.790;8.990;2023-07-30T13:53:28;8.43;;;2.80;;
68944;SDS011;55984;48.790;8.990;2023-07-30T13:55:54;3.87;;;2.50;;
68944;SDS011;55984;48.790;8.990;2023-07-30T13:58:20;7.07;;;2.87;;
68944;SDS011;55984;48.790;8.990;2023-07-30T14:00:46;5.10;;;2.60;;
68944;SDS011;55984;48.790;8.990;2023-07-30T14:03:12;4.67;;;2.60;;
68944;SDS011;55984;48.790;8.990;2023-07-30T14:05:38;5.00;;;2.57;;
68944;SDS011;55984;48.790;8.990;2023-07-30T14:08:04;5.40;;;2.77;;
68944;SDS011;55984;48.790;8.990;2023-07-30T14:10:30;4.47;;;2.70;;
68944;SDS011;55984;48.790;8.990;2023-07-30T14:12:56;7.07;;;2.77;;
68944;SDS011;55984;48.790;8.990;2023-07-30T14:15:22;5.97;;;2.60;;
68944;SDS011;55984;48.790;8.990;2023-07-30T14:17:48;5.50;;;3.00;;
68944;SDS011;55984;48.790;8.990;2023-07-30T14:20:15;5.70;;;2.53;;
68944;SDS011;55984;48.790;8.990;2023-07-30T14:22:44;5.13;;;2.63;;
68944;SDS011;55984;48.790;8.990;2023-07-30T14:25:10;4.10;;;3.00;;
68944;SDS011;55984;48.790;8.990;2023-07-30T14:27:36;5.30;;;2.33;;
68944;SDS011;55984;48.790;8.990;2023-07-30T14:30:02;5.60;;;2.50;;
68944;SDS011;55984;48.790;8.990;2023-07-30T14:32:31;6.23;;;2.60;;
68944;SDS011;55984;48.790;8.990;2023-07-30T14:34:57;9.70;;;2.60;;
68944;SDS011;55984;48.790;8.990;2023-07-30T14:37:23;4.60;;;2.40;;
68944;SDS011;55984;48.790;8.990;2023-07-30T14:39:48;4.70;;;2.33;;
68944;SDS011;55984;48.790;8.990;2023-07-30T14:42:14;3.73;;;2.50;;
68944;SDS011;55984;48.790;8.990;2023-07-30T14:44:40;5.67;;;2.60;;
68944;SDS011;55984;48.790;8.990;2023-07-30T14:47:06;5.23;;;2.70;;
68944;SDS011;55984;48.790;8.990;2023-07-30T14:49:33;4.00;;;2.43;;